sensor_id;sensor_type;location;lat;lon;timestamp;P1;durP1;ratioP1;P2;durP2;ratioP2
18592;SDS011;9426;54.118;17.948;2023-04-30T00:01:14;22.37;;;8.80;;
18592;SDS011;9426;54.118;17.948;2023-04-30T00:06:39;16.80;;;9.43;;
18592;SDS011;9426;54.118;17.948;2023-04-30T00:12:05;22.03;;;9.50;;
18592;SDS011;9426;54.118;17.948;2023-04-30T00:17:31;19.83;;;8.57;;
18592;SDS011;9426;54.118;17.948;2023-04-30T00:22:56;20.07;;;9.07;;
18592;SDS011;9426;54.118;17.948;2023-04-30T00:28:22;23.10;;;8.63;;
18592;SDS011;9426;54.118;17.948;2023-04-30T00:33:48;18.40;;;8.80;;
18592;SDS011;9426;54.118;17.948;2023-04-30T00:39:18;13.63;;;7.37;;
18592;SDS011;9426;54.118;17.948;2023-04-30T00:44:50;18.27;;;7.37;;
18592;SDS011;9426;54.118;17.948;2023-04-30T00:50:16;19.13;;;8.37;;
18592;SDS011;9426;54.118;17.948;2023-04-30T00:55:41;18.40;;;7.23;;
18592;SDS011;9426;54.118;17.948;2023-04-30T01:01:09;19.60;;;8.80;;
18592;SDS011;9426;54.118;17.948;2023-04-30T01:06:35;22.77;;;8.77;;
18592;SDS011;9426;54.118;17.948;2023-04-30T01:12:03;19.40;;;8.87;;
18592;SDS011;9426;54.118;17.948;2023-04-30T01:17:40;21.87;;;9.00;;
18592;SDS011;9426;54.118;17.948;2023-04-30T01:23:13;18.27;;;8.80;;
18592;SDS011;9426;54.118;17.948;2023-04-30T01:28:52;22.40;;;8.80;;
18592;SDS011;9426;54.118;17.948;2023-04-30T01:34:20;24.40;;;10.40;;
18592;SDS011;9426;54.118;17.948;2023-04-30T01:39:49;19.00;;;8.80;;
18592;SDS011;9426;54.118;17.948;2023-04-30T01:45:32;27.60;;;10.40;;
18592;SDS011;9426;54.118;17.948;2023-04-30T01:51:07;25.57;;;9.23;;
18592;SDS011;9426;54.118;17.948;2023-04-30T01:56:39;21.87;;;9.30;;
18592;SDS011;9426;54.118;17.948;2023-04-30T02:02:10;21.43;;;8.90;;
18592;SDS011;9426;54.118;17.948;2023-04-30T02:07:36;19.13;;;8.93;;
18592;SDS011;9426;54.118;17.948;2023-04-30T02:13:04;22.13;;;8.77;;
18592;SDS011;9426;54.118;17.948;2023-04-30T02:18:31;16.17;;;8.97;;
18592;SDS011;9426;54.118;17.948;2023-04-30T02:23:57;17.57;;;7.77;;
18592;SDS011;9426;54.118;17.948;2023-04-30T02:29:21;22.07;;;8.93;;
18592;SDS011;9426;54.118;17.948;2023-04-30T02:34:48;24.53;;;8.50;;
18592;SDS011;9426;54.118;17.948;2023-04-30T02:40:13;21.07;;;7.53;;
18592;SDS011;9426;54.118;17.948;2023-04-30T02:45:41;18.13;;;7.13;;
18592;SDS011;9426;54.118;17.948;2023-04-30T02:51:08;18.17;;;7.80;;
18592;SDS011;9426;54.118;17.948;2023-04-30T02:56:34;21.30;;;7.37;;
18592;SDS011;9426;54.118;17.948;2023-04-30T03:02:00;22.50;;;7.87;;
18592;SDS011;9426;54.118;17.948;2023-04-30T03:07:28;18.57;;;7.00;;
18592;SDS011;9426;54.118;17.948;2023-04-30T03:12:57;20.90;;;7.10;;
18592;SDS011;9426;54.118;17.948;2023-04-30T03:18:23;16.27;;;6.00;;
18592;SDS011;9426;54.118;17.948;2023-04-30T03:23:51;20.20;;;6.10;;
18592;SDS011;9426;54.118;17.948;2023-04-30T03:29:17;18.27;;;6.33;;
18592;SDS011;9426;54.118;17.948;2023-04-30T03:34:42;20.57;;;6.60;;
18592;SDS011;9426;54.118;17.948;2023-04-30T03:40:09;16.30;;;6.00;;
18592;SDS011;9426;54.118;17.948;2023-04-30T03:45:35;18.80;;;6.33;;
18592;SDS011;9426;54.118;17.948;2023-04-30T03:51:01;15.37;;;5.70;;
18592;SDS011;9426;54.118;17.948;2023-04-30T03:56:28;16.07;;;5.57;;
18592;SDS011;9426;54.118;17.948;2023-04-30T04:01:55;15.67;;;5.70;;
18592;SDS011;9426;54.118;17.948;2023-04-30T04:07:20;19.37;;;5.53;;
18592;SDS011;9426;54.118;17.948;2023-04-30T04:12:47;24.20;;;5.80;;
18592;SDS011;9426;54.118;17.948;2023-04-30T04:18:13;15.00;;;5.03;;
18592;SDS011;9426;54.118;17.948;2023-04-30T04:23:39;13.03;;;5.13;;
18592;SDS011;9426;54.118;17.948;2023-04-30T04:29:06;22.40;;;4.80;;
18592;SDS011;9426;54.118;17.948;2023-04-30T04:34:33;22.50;;;4.80;;
18592;SDS011;9426;54.118;17.948;2023-04-30T04:39:59;18.60;;;4.53;;
18592;SDS011;9426;54.118;17.948;2023-04-30T04:45:28;14.67;;;4.23;;
18592;SDS011;9426;54.118;17.948;2023-04-30T04:50:53;18.27;;;4.87;;
18592;SDS011;9426;54.118;17.948;2023-04-30T04:56:18;11.97;;;3.90;;
18592;SDS011;9426;54.118;17.948;2023-04-30T05:01:45;14.00;;;4.27;;
18592;SDS011;9426;54.118;17.948;2023-04-30T05:07:10;17.03;;;4.57;;
18592;SDS011;9426;54.118;17.948;2023-04-30T05:12:35;12.30;;;3.73;;
18592;SDS011;9426;54.118;17.948;2023-04-30T05:18:02;20.27;;;4.40;;
18592;SDS011;9426;54.118;17.948;2023-04-30T05:23:27;20.80;;;4.67;;
18592;SDS011;9426;54.118;17.948;2023-04-30T05:28:53;15.10;;;4.20;;
18592;SDS011;9426;54.118;17.948;2023-04-30T05:34:20;14.53;;;3.73;;
18592;SDS011;9426;54.118;17.948;2023-04-30T05:39:45;22.53;;;3.83;;
18592;SDS011;9426;54.118;17.948;2023-04-30T05:45:12;16.60;;;3.93;;
18592;SDS011;9426;54.118;17.948;2023-04-30T05:50:42;18.63;;;5.20;;
18592;SDS011;9426;54.118;17.948;2023-04-30T05:56:08;14.73;;;4.47;;
18592;SDS011;9426;54.118;17.948;2023-04-30T06:01:34;15.90;;;4.03;;
18592;SDS011;9426;54.118;17.948;2023-04-30T06:07:07;17.33;;;4.47;;
18592;SDS011;9426;54.118;17.948;2023-04-30T06:12:35;17.93;;;4.13;;
18592;SDS011;9426;54.118;17.948;2023-04-30T06:18:00;18.53;;;3.73;;
18592;SDS011;9426;54.118;17.948;2023-04-30T06:23:32;14.53;;;4.00;;
18592;SDS011;9426;54.118;17.948;2023-04-30T06:29:01;16.70;;;3.70;;
18592;SDS011;9426;54.118;17.948;2023-04-30T06:34:31;17.03;;;4.50;;
18592;SDS011;9426;54.118;17.948;2023-04-30T06:39:57;15.73;;;3.40;;
18592;SDS011;9426;54.118;17.948;2023-04-30T06:45:30;14.17;;;3.37;;
18592;SDS011;9426;54.118;17.948;2023-04-30T06:51:08;19.97;;;3.90;;
18592;SDS011;9426;54.118;17.948;2023-04-30T06:56:41;12.17;;;3.77;;
18592;SDS011;9426;54.118;17.948;2023-04-30T07:02:22;12.33;;;2.83;;
18592;SDS011;9426;54.118;17.948;2023-04-30T07:07:59;9.67;;;2.60;;
18592;SDS011;9426;54.118;17.948;2023-04-30T07:13:33;8.73;;;2.50;;
18592;SDS011;9426;54.118;17.948;2023-04-30T07:19:07;10.27;;;3.10;;
18592;SDS011;9426;54.118;17.948;2023-04-30T07:24:49;8.37;;;2.37;;
18592;SDS011;9426;54.118;17.948;2023-04-30T07:30:42;10.93;;;2.77;;
18592;SDS011;9426;54.118;17.948;2023-04-30T07:36:29;7.77;;;2.07;;
18592;SDS011;9426;54.118;17.948;2023-04-30T07:42:44;7.63;;;2.27;;
18592;SDS011;9426;54.118;17.948;2023-04-30T08:03:41;8.97;;;2.37;;
18592;SDS011;9426;54.118;17.948;2023-04-30T08:09:09;8.70;;;2.50;;
18592;SDS011;9426;54.118;17.948;2023-04-30T08:14:43;7.00;;;2.17;;
18592;SDS011;9426;54.118;17.948;2023-04-30T08:28:25;6.47;;;1.70;;
18592;SDS011;9426;54.118;17.948;2023-04-30T08:34:26;9.77;;;2.23;;
18592;SDS011;9426;54.118;17.948;2023-04-30T08:40:54;6.43;;;1.67;;
18592;SDS011;9426;54.118;17.948;2023-04-30T08:46:31;6.73;;;1.90;;
18592;SDS011;9426;54.118;17.948;2023-04-30T08:52:07;4.23;;;1.87;;
18592;SDS011;9426;54.118;17.948;2023-04-30T08:57:36;8.17;;;2.17;;
18592;SDS011;9426;54.118;17.948;2023-04-30T09:03:02;7.90;;;2.20;;
18592;SDS011;9426;54.118;17.948;2023-04-30T09:08:44;11.27;;;2.30;;
18592;SDS011;9426;54.118;17.948;2023-04-30T09:14:11;8.30;;;2.10;;
18592;SDS011;9426;54.118;17.948;2023-04-30T09:19:53;6.43;;;1.80;;
18592;SDS011;9426;54.118;17.948;2023-04-30T09:32:33;5.60;;;1.90;;
18592;SDS011;9426;54.118;17.948;2023-04-30T09:38:28;4.67;;;1.80;;
18592;SDS011;9426;54.118;17.948;2023-04-30T09:43:58;7.00;;;2.17;;
18592;SDS011;9426;54.118;17.948;2023-04-30T09:49:28;4.53;;;1.67;;
18592;SDS011;9426;54.118;17.948;2023-04-30T10:00:53;6.00;;;1.90;;
18592;SDS011;9426;54.118;17.948;2023-04-30T10:28:51;6.70;;;2.00;;
18592;SDS011;9426;54.118;17.948;2023-04-30T10:34:18;11.07;;;2.50;;
18592;SDS011;9426;54.118;17.948;2023-04-30T10:40:05;7.33;;;2.33;;
18592;SDS011;9426;54.118;17.948;2023-04-30T10:45:37;6.50;;;2.00;;
18592;SDS011;9426;54.118;17.948;2023-04-30T10:51:06;5.30;;;1.90;;
18592;SDS011;9426;54.118;17.948;2023-04-30T11:03:35;8.93;;;2.27;;
18592;SDS011;9426;54.118;17.948;2023-04-30T11:10:55;3.73;;;1.70;;
18592;SDS011;9426;54.118;17.948;2023-04-30T11:25:07;6.17;;;2.40;;
18592;SDS011;9426;54.118;17.948;2023-04-30T11:30:33;7.40;;;2.20;;
18592;SDS011;9426;54.118;17.948;2023-04-30T11:36:01;5.87;;;2.20;;
18592;SDS011;9426;54.118;17.948;2023-04-30T11:47:44;8.10;;;1.93;;
18592;SDS011;9426;54.118;17.948;2023-04-30T11:53:33;7.53;;;2.43;;
18592;SDS011;9426;54.118;17.948;2023-04-30T11:59:25;3.57;;;1.63;;
18592;SDS011;9426;54.118;17.948;2023-04-30T12:29:01;5.93;;;1.83;;
18592;SDS011;9426;54.118;17.948;2023-04-30T12:34:36;5.80;;;2.07;;
18592;SDS011;9426;54.118;17.948;2023-04-30T12:40:06;12.40;;;2.23;;
18592;SDS011;9426;54.118;17.948;2023-04-30T12:45:43;9.83;;;2.40;;
18592;SDS011;9426;54.118;17.948;2023-04-30T12:51:10;7.87;;;2.40;;
18592;SDS011;9426;54.118;17.948;2023-04-30T12:56:36;6.83;;;1.97;;
18592;SDS011;9426;54.118;17.948;2023-04-30T13:02:05;5.60;;;1.67;;
18592;SDS011;9426;54.118;17.948;2023-04-30T13:07:37;6.43;;;2.30;;
18592;SDS011;9426;54.118;17.948;2023-04-30T13:13:03;6.07;;;1.80;;
18592;SDS011;9426;54.118;17.948;2023-04-30T13:18:28;3.33;;;1.73;;
18592;SDS011;9426;54.118;17.948;2023-04-30T13:23:55;5.37;;;2.03;;
18592;SDS011;9426;54.118;17.948;2023-04-30T13:29:19;8.53;;;2.07;;
18592;SDS011;9426;54.118;17.948;2023-04-30T13:34:57;5.87;;;1.83;;
18592;SDS011;9426;54.118;17.948;2023-04-30T13:41:38;5.77;;;2.10;;
18592;SDS011;9426;54.118;17.948;2023-04-30T13:55:25;7.10;;;2.03;;
18592;SDS011;9426;54.118;17.948;2023-04-30T14:01:16;6.40;;;2.40;;
18592;SDS011;9426;54.118;17.948;2023-04-30T14:07:49;8.47;;;1.93;;
18592;SDS011;9426;54.118;17.948;2023-04-30T14:13:26;4.90;;;2.17;;
18592;SDS011;9426;54.118;17.948;2023-04-30T14:18:53;4.60;;;1.77;;
18592;SDS011;9426;54.118;17.948;2023-04-30T14:25:12;6.57;;;2.20;;
18592;SDS011;9426;54.118;17.948;2023-04-30T14:30:37;4.30;;;1.77;;
18592;SDS011;9426;54.118;17.948;2023-04-30T14:36:03;13.73;;;6.73;;
18592;SDS011;9426;54.118;17.948;2023-04-30T14:41:33;4.97;;;2.33;;
18592;SDS011;9426;54.118;17.948;2023-04-30T14:46:59;17.30;;;7.53;;
18592;SDS011;9426;54.118;17.948;2023-04-30T14:52:27;5.80;;;2.40;;
18592;SDS011;9426;54.118;17.948;2023-04-30T15:04:01;5.80;;;2.03;;
18592;SDS011;9426;54.118;17.948;2023-04-30T15:09:29;8.63;;;2.10;;
18592;SDS011;9426;54.118;17.948;2023-04-30T15:14:53;7.07;;;2.60;;
18592;SDS011;9426;54.118;17.948;2023-04-30T15:20:18;6.23;;;2.20;;
18592;SDS011;9426;54.118;17.948;2023-04-30T15:25:44;6.07;;;1.90;;
18592;SDS011;9426;54.118;17.948;2023-04-30T15:31:09;6.43;;;2.03;;
18592;SDS011;9426;54.118;17.948;2023-04-30T15:36:44;7.80;;;2.07;;
18592;SDS011;9426;54.118;17.948;2023-04-30T15:42:09;12.87;;;2.00;;
18592;SDS011;9426;54.118;17.948;2023-04-30T15:47:43;4.03;;;1.70;;
18592;SDS011;9426;54.118;17.948;2023-04-30T15:53:10;14.20;;;2.30;;
18592;SDS011;9426;54.118;17.948;2023-04-30T15:58:46;6.50;;;2.30;;
18592;SDS011;9426;54.118;17.948;2023-04-30T16:04:15;5.03;;;2.00;;
18592;SDS011;9426;54.118;17.948;2023-04-30T16:09:44;8.33;;;2.20;;
18592;SDS011;9426;54.118;17.948;2023-04-30T16:15:13;5.60;;;2.10;;
18592;SDS011;9426;54.118;17.948;2023-04-30T16:20:43;4.03;;;1.83;;
18592;SDS011;9426;54.118;17.948;2023-04-30T16:26:13;6.47;;;1.90;;
18592;SDS011;9426;54.118;17.948;2023-04-30T16:31:48;6.37;;;2.10;;
18592;SDS011;9426;54.118;17.948;2023-04-30T16:37:16;6.60;;;2.60;;
18592;SDS011;9426;54.118;17.948;2023-04-30T16:42:43;5.33;;;1.90;;
18592;SDS011;9426;54.118;17.948;2023-04-30T16:48:09;7.50;;;1.93;;
18592;SDS011;9426;54.118;17.948;2023-04-30T16:53:34;5.97;;;2.10;;
18592;SDS011;9426;54.118;17.948;2023-04-30T16:59:02;9.03;;;2.70;;
18592;SDS011;9426;54.118;17.948;2023-04-30T17:04:28;6.43;;;2.30;;
18592;SDS011;9426;54.118;17.948;2023-04-30T17:09:52;4.10;;;2.07;;
18592;SDS011;9426;54.118;17.948;2023-04-30T17:15:17;10.60;;;3.00;;
18592;SDS011;9426;54.118;17.948;2023-04-30T17:20:52;6.83;;;2.23;;
18592;SDS011;9426;54.118;17.948;2023-04-30T17:26:15;13.57;;;2.43;;
18592;SDS011;9426;54.118;17.948;2023-04-30T17:31:40;9.20;;;2.60;;
18592;SDS011;9426;54.118;17.948;2023-04-30T17:37:08;7.03;;;2.67;;
18592;SDS011;9426;54.118;17.948;2023-04-30T17:42:31;5.67;;;2.83;;
18592;SDS011;9426;54.118;17.948;2023-04-30T17:47:56;9.87;;;2.90;;
18592;SDS011;9426;54.118;17.948;2023-04-30T17:53:23;4.93;;;2.17;;
18592;SDS011;9426;54.118;17.948;2023-04-30T17:58:47;5.73;;;2.50;;
18592;SDS011;9426;54.118;17.948;2023-04-30T18:04:14;6.70;;;3.17;;
18592;SDS011;9426;54.118;17.948;2023-04-30T18:09:42;7.53;;;2.70;;
18592;SDS011;9426;54.118;17.948;2023-04-30T18:15:08;9.40;;;3.17;;
18592;SDS011;9426;54.118;17.948;2023-04-30T18:20:33;5.17;;;2.73;;
18592;SDS011;9426;54.118;17.948;2023-04-30T18:26:01;21.07;;;8.90;;
18592;SDS011;9426;54.118;17.948;2023-04-30T18:31:29;6.07;;;2.63;;
18592;SDS011;9426;54.118;17.948;2023-04-30T18:36:56;10.50;;;3.00;;
18592;SDS011;9426;54.118;17.948;2023-04-30T18:49:18;8.73;;;2.93;;
18592;SDS011;9426;54.118;17.948;2023-04-30T19:01:46;10.83;;;3.50;;
18592;SDS011;9426;54.118;17.948;2023-04-30T19:07:13;10.43;;;3.40;;
18592;SDS011;9426;54.118;17.948;2023-04-30T19:12:37;7.17;;;3.10;;
18592;SDS011;9426;54.118;17.948;2023-04-30T19:18:01;14.03;;;3.90;;
18592;SDS011;9426;54.118;17.948;2023-04-30T19:23:26;7.37;;;3.10;;
18592;SDS011;9426;54.118;17.948;2023-04-30T19:28:52;9.40;;;3.70;;
18592;SDS011;9426;54.118;17.948;2023-04-30T19:34:28;13.40;;;4.47;;
18592;SDS011;9426;54.118;17.948;2023-04-30T19:39:53;10.23;;;4.67;;
18592;SDS011;9426;54.118;17.948;2023-04-30T19:45:18;15.07;;;4.73;;
18592;SDS011;9426;54.118;17.948;2023-04-30T19:50:42;11.60;;;5.57;;
18592;SDS011;9426;54.118;17.948;2023-04-30T19:56:13;13.07;;;4.30;;
18592;SDS011;9426;54.118;17.948;2023-04-30T20:01:37;18.57;;;5.30;;
18592;SDS011;9426;54.118;17.948;2023-04-30T20:07:04;24.50;;;8.93;;
18592;SDS011;9426;54.118;17.948;2023-04-30T20:12:32;13.37;;;4.73;;
18592;SDS011;9426;54.118;17.948;2023-04-30T20:17:59;7.93;;;4.17;;
18592;SDS011;9426;54.118;17.948;2023-04-30T20:23:26;12.10;;;4.87;;
18592;SDS011;9426;54.118;17.948;2023-04-30T20:28:53;14.27;;;4.30;;
18592;SDS011;9426;54.118;17.948;2023-04-30T20:34:18;17.50;;;5.30;;
18592;SDS011;9426;54.118;17.948;2023-04-30T20:39:44;8.83;;;4.10;;
18592;SDS011;9426;54.118;17.948;2023-04-30T20:45:10;19.77;;;5.40;;
18592;SDS011;9426;54.118;17.948;2023-04-30T20:50:36;14.57;;;5.47;;
18592;SDS011;9426;54.118;17.948;2023-04-30T20:56:02;15.70;;;5.23;;
18592;SDS011;9426;54.118;17.948;2023-04-30T21:01:28;17.73;;;6.73;;
18592;SDS011;9426;54.118;17.948;2023-04-30T21:06:53;14.53;;;6.47;;
18592;SDS011;9426;54.118;17.948;2023-04-30T21:12:17;10.83;;;5.30;;
18592;SDS011;9426;54.118;17.948;2023-04-30T21:17:43;20.70;;;6.27;;
18592;SDS011;9426;54.118;17.948;2023-04-30T21:23:06;13.93;;;5.40;;
18592;SDS011;9426;54.118;17.948;2023-04-30T21:28:30;13.50;;;5.33;;
18592;SDS011;9426;54.118;17.948;2023-04-30T21:34:16;17.43;;;6.70;;
18592;SDS011;9426;54.118;17.948;2023-04-30T21:39:40;15.47;;;6.20;;
18592;SDS011;9426;54.118;17.948;2023-04-30T21:45:30;15.87;;;5.90;;
18592;SDS011;9426;54.118;17.948;2023-04-30T21:50:56;15.13;;;6.80;;
18592;SDS011;9426;54.118;17.948;2023-04-30T21:56:20;47.83;;;24.20;;
18592;SDS011;9426;54.118;17.948;2023-04-30T22:01:43;18.73;;;6.90;;
18592;SDS011;9426;54.118;17.948;2023-04-30T22:07:08;21.83;;;9.50;;
18592;SDS011;9426;54.118;17.948;2023-04-30T22:12:32;35.20;;;19.33;;
18592;SDS011;9426;54.118;17.948;2023-04-30T22:17:56;19.40;;;6.63;;
18592;SDS011;9426;54.118;17.948;2023-04-30T22:23:21;14.17;;;6.40;;
18592;SDS011;9426;54.118;17.948;2023-04-30T22:28:45;14.53;;;7.27;;
18592;SDS011;9426;54.118;17.948;2023-04-30T22:34:08;16.00;;;8.27;;
18592;SDS011;9426;54.118;17.948;2023-04-30T22:39:34;24.90;;;9.40;;
18592;SDS011;9426;54.118;17.948;2023-04-30T22:44:58;24.63;;;8.83;;
18592;SDS011;9426;54.118;17.948;2023-04-30T22:50:22;22.07;;;7.87;;
18592;SDS011;9426;54.118;17.948;2023-04-30T22:55:48;13.67;;;6.13;;
18592;SDS011;9426;54.118;17.948;2023-04-30T23:01:14;16.43;;;6.97;;
18592;SDS011;9426;54.118;17.948;2023-04-30T23:06:39;20.73;;;6.87;;
18592;SDS011;9426;54.118;17.948;2023-04-30T23:12:06;21.00;;;7.83;;
18592;SDS011;9426;54.118;17.948;2023-04-30T23:17:31;17.87;;;7.17;;
18592;SDS011;9426;54.118;17.948;2023-04-30T23:22:56;15.80;;;6.77;;
18592;SDS011;9426;54.118;17.948;2023-04-30T23:28:22;18.60;;;6.83;;
18592;SDS011;9426;54.118;17.948;2023-04-30T23:33:47;14.83;;;6.40;;
18592;SDS011;9426;54.118;17.948;2023-04-30T23:39:12;15.50;;;6.30;;
18592;SDS011;9426;54.118;17.948;2023-04-30T23:44:38;17.50;;;6.47;;
18592;SDS011;9426;54.118;17.948;2023-04-30T23:50:04;17.83;;;6.90;;
18592;SDS011;9426;54.118;17.948;2023-04-30T23:55:29;17.30;;;6.60;;
